createdAt,value
2018-05-16T00:01:18.958Z,10.80
2018-05-16T00:03:46.414Z,10.80
2018-05-16T00:06:13.864Z,10.90
2018-05-16T00:08:41.326Z,10.90
2018-05-16T00:11:08.782Z,10.90
2018-05-16T00:13:36.288Z,10.90
2018-05-16T00:16:04.523Z,10.90
2018-05-16T00:18:31.981Z,10.90
2018-05-16T00:20:59.844Z,10.90
2018-05-16T00:23:27.297Z,10.90
2018-05-16T00:25:54.761Z,10.80
2018-05-16T00:28:22.256Z,10.80
2018-05-16T00:30:49.705Z,10.80
2018-05-16T00:33:17.573Z,10.80
2018-05-16T00:35:45.083Z,10.80
2018-05-16T00:38:13.324Z,10.80
2018-05-16T00:40:40.815Z,10.80
2018-05-16T00:43:09.025Z,10.80
2018-05-16T00:45:36.478Z,10.80
2018-05-16T00:48:04.073Z,10.70
2018-05-16T00:50:31.536Z,10.70
2018-05-16T00:52:59.061Z,10.70
2018-05-16T00:55:26.533Z,10.70
2018-05-16T00:57:53.993Z,10.70
2018-05-16T01:00:21.449Z,10.70
2018-05-16T01:02:48.951Z,10.70
2018-05-16T01:05:16.409Z,10.70
2018-05-16T01:07:43.858Z,10.70
2018-05-16T01:10:11.319Z,10.70
2018-05-16T01:12:39.100Z,10.70
2018-05-16T01:15:07.445Z,10.70
2018-05-16T01:17:34.880Z,10.70
2018-05-16T01:20:03.252Z,10.70
2018-05-16T01:22:31.468Z,10.70
2018-05-16T01:24:58.995Z,10.70
2018-05-16T01:27:27.228Z,10.70
2018-05-16T01:29:54.715Z,10.70
2018-05-16T01:32:22.297Z,10.80
2018-05-16T01:34:50.013Z,10.70
2018-05-16T01:37:17.464Z,10.70
2018-05-16T01:39:44.916Z,10.60
2018-05-16T01:42:12.385Z,10.60
2018-05-16T01:44:39.844Z,10.60
2018-05-16T01:47:07.317Z,10.60
2018-05-16T01:49:34.773Z,10.60
2018-05-16T01:52:02.237Z,10.60
2018-05-16T01:54:29.687Z,10.70
2018-05-16T01:56:57.154Z,10.80
2018-05-16T01:59:24.636Z,10.80
2018-05-16T02:01:52.093Z,10.80
2018-05-16T02:04:19.548Z,10.80
2018-05-16T02:06:47.000Z,10.70
2018-05-16T02:09:14.567Z,10.70
2018-05-16T02:11:43.830Z,10.70
2018-05-16T02:14:12.134Z,10.70
2018-05-16T02:16:39.663Z,10.70
2018-05-16T02:19:07.032Z,10.70
2018-05-16T02:21:34.696Z,10.70
2018-05-16T02:24:02.921Z,10.70
2018-05-16T02:26:30.368Z,10.70
2018-05-16T02:28:57.838Z,10.70
2018-05-16T02:31:25.280Z,10.60
2018-05-16T02:33:52.732Z,10.60
2018-05-16T02:36:20.193Z,10.60
2018-05-16T02:38:47.642Z,10.60
2018-05-16T02:41:15.860Z,10.60
2018-05-16T02:43:43.333Z,10.60
2018-05-16T02:46:10.790Z,10.60
2018-05-16T02:48:38.239Z,10.70
2018-05-16T02:51:05.710Z,10.80
2018-05-16T02:53:33.157Z,10.80
2018-05-16T02:56:00.619Z,10.70
2018-05-16T02:58:28.069Z,10.70
2018-05-16T03:00:55.563Z,10.70
2018-05-16T03:03:23.006Z,10.70
2018-05-16T03:05:50.469Z,10.70
2018-05-16T03:08:17.936Z,10.70
2018-05-16T03:10:45.556Z,10.70
2018-05-16T03:13:13.033Z,10.70
2018-05-16T03:15:40.490Z,10.70
2018-05-16T03:18:07.949Z,10.70
2018-05-16T03:20:35.421Z,10.80
2018-05-16T03:23:02.895Z,10.80
2018-05-16T03:25:30.340Z,10.70
2018-05-16T03:27:57.942Z,10.70
2018-05-16T03:30:25.414Z,10.70
2018-05-16T03:32:52.857Z,10.70
2018-05-16T03:35:20.312Z,10.70
2018-05-16T03:37:47.767Z,10.70
2018-05-16T03:40:16.369Z,10.80
2018-05-16T03:42:43.821Z,10.80
2018-05-16T03:45:11.273Z,10.80
2018-05-16T03:47:38.723Z,10.80
2018-05-16T03:50:06.184Z,10.80
2018-05-16T03:52:33.640Z,10.80
2018-05-16T03:55:01.139Z,10.80
2018-05-16T03:57:40.397Z,10.80
2018-05-16T04:00:19.761Z,10.70
2018-05-16T04:02:59.303Z,10.70
2018-05-16T04:05:26.792Z,10.70
2018-05-16T04:07:54.213Z,10.80
2018-05-16T04:10:22.434Z,10.80
2018-05-16T04:12:49.902Z,10.70
2018-05-16T04:15:17.340Z,10.80
2018-05-16T04:17:44.818Z,10.70
2018-05-16T04:20:12.271Z,10.70
2018-05-16T04:22:39.746Z,10.70
2018-05-16T04:25:07.187Z,10.70
2018-05-16T04:27:34.643Z,10.70
2018-05-16T04:30:02.115Z,10.70
2018-05-16T04:32:29.594Z,10.80
2018-05-16T04:34:57.036Z,10.80
2018-05-16T04:37:24.500Z,10.80
2018-05-16T04:39:51.972Z,10.80
2018-05-16T04:42:19.413Z,10.80
2018-05-16T04:44:47.804Z,10.90
2018-05-16T04:47:15.270Z,10.90
2018-05-16T04:49:42.738Z,10.90
2018-05-16T04:52:10.192Z,10.90
2018-05-16T04:54:37.757Z,10.90
2018-05-16T04:57:05.213Z,11.00
2018-05-16T04:59:32.681Z,11.00
2018-05-16T05:02:00.133Z,11.00
2018-05-16T05:04:27.619Z,11.00
2018-05-16T05:06:55.075Z,11.00
2018-05-16T05:09:22.542Z,11.00
2018-05-16T05:11:49.997Z,11.00
2018-05-16T05:14:17.461Z,11.00
2018-05-16T05:16:44.934Z,11.00
2018-05-16T05:19:12.380Z,11.00
2018-05-16T05:21:39.868Z,11.10
2018-05-16T05:24:08.166Z,11.20
2018-05-16T05:26:35.544Z,11.10
2018-05-16T05:29:02.998Z,11.20
2018-05-16T05:31:30.470Z,11.30
2018-05-16T05:33:57.928Z,11.30
2018-05-16T05:36:25.389Z,11.50
2018-05-16T05:38:52.861Z,11.60
2018-05-16T05:41:20.336Z,11.60
2018-05-16T05:43:47.778Z,11.70
2018-05-16T05:46:15.233Z,11.80
2018-05-16T05:48:42.676Z,11.90
2018-05-16T05:51:10.150Z,12.00
2018-05-16T05:53:37.618Z,12.10
2018-05-16T05:56:05.087Z,12.20
2018-05-16T05:58:32.534Z,12.30
2018-05-16T06:00:59.984Z,12.40
2018-05-16T06:03:27.467Z,12.50
2018-05-16T06:05:54.918Z,12.60
2018-05-16T06:08:22.400Z,12.70
2018-05-16T06:10:50.275Z,12.70
2018-05-16T06:13:17.708Z,12.70
2018-05-16T06:15:46.336Z,12.60
2018-05-16T06:18:13.805Z,12.50
2018-05-16T06:20:41.253Z,12.40
2018-05-16T06:23:08.715Z,12.40
2018-05-16T06:25:36.167Z,12.30
2018-05-16T06:28:04.503Z,12.40
2018-05-16T06:30:31.948Z,12.40
2018-05-16T06:33:00.182Z,12.50
2018-05-16T06:35:27.650Z,12.50
2018-05-16T06:37:55.097Z,12.50
2018-05-16T06:40:22.577Z,12.50
2018-05-16T06:42:50.036Z,12.50
2018-05-16T06:45:17.558Z,12.40
2018-05-16T06:47:45.045Z,12.50
2018-05-16T06:50:12.522Z,12.50
2018-05-16T06:52:39.976Z,12.60
2018-05-16T06:55:07.428Z,12.70
2018-05-16T06:57:34.905Z,12.70
2018-05-16T07:00:02.411Z,12.80
2018-05-16T07:02:30.605Z,12.90
2018-05-16T07:04:58.064Z,12.80
2018-05-16T07:07:25.545Z,12.90
2018-05-16T07:09:53.023Z,12.90
2018-05-16T07:12:20.486Z,12.80
2018-05-16T07:14:47.943Z,12.90
2018-05-16T07:17:15.397Z,13.00
2018-05-16T07:19:42.864Z,13.00
2018-05-16T07:22:10.313Z,13.00
2018-05-16T07:24:37.772Z,13.10
2018-05-16T07:27:05.231Z,13.20
2018-05-16T07:29:32.696Z,13.50
2018-05-16T07:32:00.155Z,13.40
2018-05-16T07:34:27.601Z,13.50
2018-05-16T07:36:55.062Z,13.60
2018-05-16T07:39:22.504Z,13.80
2018-05-16T07:41:50.132Z,14.00
2018-05-16T07:44:17.590Z,14.30
2018-05-16T07:46:45.047Z,14.50
2018-05-16T07:49:12.496Z,14.70
2018-05-16T07:51:39.968Z,14.90
2018-05-16T07:54:07.421Z,15.20
2018-05-16T07:56:34.866Z,15.30
2018-05-16T07:59:02.343Z,15.50
2018-05-16T08:01:29.800Z,15.60
2018-05-16T08:03:57.241Z,15.70
2018-05-16T08:06:24.700Z,15.90
2018-05-16T08:08:52.161Z,16.10
2018-05-16T08:11:19.618Z,16.30
2018-05-16T08:13:47.061Z,16.30
2018-05-16T08:16:14.501Z,16.30
2018-05-16T08:18:42.930Z,16.00
2018-05-16T08:21:10.366Z,16.00
2018-05-16T08:23:37.846Z,15.80
2018-05-16T08:26:05.278Z,15.60
2018-05-16T08:31:07.571Z,15.30
2018-05-16T08:33:34.929Z,15.30
2018-05-16T08:36:02.391Z,15.20
2018-05-16T08:38:29.820Z,15.00
2018-05-16T08:40:57.404Z,14.90
2018-05-16T08:43:25.707Z,14.60
2018-05-16T08:45:53.167Z,14.60
2018-05-16T08:48:20.679Z,14.50
2018-05-16T08:50:48.849Z,14.30
2018-05-16T08:53:16.301Z,14.20
2018-05-16T08:55:43.760Z,14.00
2018-05-16T08:58:11.211Z,13.80
2018-05-16T09:00:39.450Z,13.60
2018-05-16T09:03:06.918Z,13.50
2018-05-16T09:05:34.384Z,13.50
2018-05-16T09:08:01.832Z,13.50
2018-05-16T09:10:29.291Z,13.60
2018-05-16T09:12:56.746Z,13.90
2018-05-16T09:15:24.962Z,14.50
2018-05-16T09:17:52.427Z,14.50
2018-05-16T09:20:19.867Z,14.70
2018-05-16T09:22:47.362Z,14.70
2018-05-16T09:25:14.814Z,14.70
2018-05-16T09:27:42.251Z,14.50
2018-05-16T09:30:09.713Z,14.40
2018-05-16T09:32:37.172Z,14.20
2018-05-16T09:35:04.633Z,14.10
2018-05-16T09:37:32.341Z,13.90
2018-05-16T09:39:59.772Z,13.80
2018-05-16T09:42:27.219Z,13.80
2018-05-16T09:44:54.704Z,13.80
2018-05-16T09:47:22.166Z,13.90
2018-05-16T09:49:49.615Z,14.00
2018-05-16T09:52:17.652Z,14.10
2018-05-16T09:54:45.881Z,14.30
2018-05-16T09:57:13.340Z,14.30
2018-05-16T09:59:40.812Z,14.30
2018-05-16T10:02:08.273Z,14.40
2018-05-16T10:04:35.749Z,14.40
2018-05-16T10:07:03.225Z,14.40
2018-05-16T10:09:31.453Z,14.40
2018-05-16T10:11:58.916Z,14.30
2018-05-16T10:14:26.348Z,14.50
2018-05-16T10:16:53.891Z,14.70
2018-05-16T10:19:21.258Z,14.90
2018-05-16T10:21:48.725Z,15.00
2018-05-16T10:24:16.181Z,15.30
2018-05-16T10:26:43.655Z,15.60
2018-05-16T10:29:11.091Z,15.80
2018-05-16T10:31:39.649Z,15.90
2018-05-16T10:34:07.117Z,16.10
2018-05-16T10:36:34.557Z,16.20
2018-05-16T10:39:02.025Z,16.20
2018-05-16T10:41:29.472Z,16.30
2018-05-16T10:43:56.924Z,16.30
2018-05-16T10:46:24.377Z,16.30
2018-05-16T10:48:51.817Z,16.20
2018-05-16T10:51:19.720Z,15.90
2018-05-16T10:53:47.190Z,15.70
2018-05-16T10:56:14.645Z,15.40
2018-05-16T10:58:42.099Z,15.30
2018-05-16T11:01:09.586Z,15.30
2018-05-16T11:03:37.051Z,15.50
2018-05-16T11:06:04.588Z,15.60
2018-05-16T11:08:32.048Z,15.80
2018-05-16T11:10:59.520Z,16.10
2018-05-16T11:13:26.989Z,16.10
2018-05-16T11:15:54.432Z,16.10
2018-05-16T11:18:21.877Z,16.30
2018-05-16T11:20:49.340Z,16.40
2018-05-16T11:23:16.788Z,16.60
2018-05-16T11:25:44.240Z,16.70
2018-05-16T11:28:11.696Z,16.60
2018-05-16T11:30:39.953Z,16.50
2018-05-16T11:33:07.411Z,16.50
2018-05-16T11:35:34.877Z,16.30
2018-05-16T11:38:03.090Z,15.90
2018-05-16T11:40:30.551Z,15.90
2018-05-16T11:42:57.981Z,15.70
2018-05-16T11:45:26.208Z,15.30
2018-05-16T11:47:53.673Z,15.30
2018-05-16T11:50:21.133Z,15.30
2018-05-16T11:52:48.605Z,15.30
2018-05-16T11:55:16.048Z,15.40
2018-05-16T11:57:43.921Z,15.70
2018-05-16T12:00:11.366Z,16.10
2018-05-16T12:02:38.875Z,16.60
2018-05-16T12:05:10.353Z,17.10
2018-05-16T12:07:37.729Z,17.80
2018-05-16T12:10:05.191Z,18.20
2018-05-16T12:12:32.633Z,18.50
2018-05-16T12:15:00.946Z,18.30
2018-05-16T12:17:28.333Z,18.30
2018-05-16T12:19:55.777Z,18.00
2018-05-16T12:22:23.280Z,17.80
2018-05-16T12:24:50.845Z,17.80
2018-05-16T12:27:18.287Z,17.70
2018-05-16T12:29:45.729Z,17.70
2018-05-16T12:32:13.193Z,17.90
2018-05-16T12:34:40.640Z,18.20
2018-05-16T12:37:08.136Z,18.60
2018-05-16T12:39:35.623Z,19.00
2018-05-16T12:42:03.841Z,20.10
2018-05-16T12:44:31.304Z,20.00
2018-05-16T12:46:58.767Z,20.70
2018-05-16T12:49:26.231Z,21.10
2018-05-16T12:51:53.674Z,21.00
2018-05-16T12:54:21.125Z,20.70
2018-05-16T12:56:48.564Z,20.30
2018-05-16T12:59:16.797Z,19.40
2018-05-16T13:01:44.316Z,19.30
2018-05-16T13:04:12.537Z,18.50
2018-05-16T13:06:39.985Z,18.50
2018-05-16T13:09:07.444Z,18.30
2018-05-16T13:11:34.911Z,18.20
2018-05-16T13:14:02.374Z,18.30
2018-05-16T13:16:29.841Z,18.40
2018-05-16T13:18:57.300Z,18.40
2018-05-16T13:21:24.773Z,18.40
2018-05-16T13:23:52.192Z,18.50
2018-05-16T13:26:19.661Z,18.60
2018-05-16T13:28:47.125Z,18.70
2018-05-16T13:31:14.569Z,18.80
2018-05-16T13:33:42.016Z,19.00
2018-05-16T13:36:10.223Z,19.60
2018-05-16T13:38:37.692Z,19.60
2018-05-16T13:41:05.140Z,20.10
2018-05-16T13:43:32.585Z,20.50
2018-05-16T13:46:00.045Z,20.60
2018-05-16T13:48:27.496Z,20.70
2018-05-16T13:50:55.724Z,21.30
2018-05-16T13:53:23.205Z,21.20
2018-05-16T13:55:50.641Z,21.40
2018-05-16T13:58:18.093Z,21.50
2018-05-16T14:00:45.549Z,21.50
2018-05-16T14:03:13.037Z,21.90
2018-05-16T14:05:40.514Z,22.10
2018-05-16T14:08:07.983Z,21.90
2018-05-16T14:10:35.432Z,21.50
2018-05-16T14:13:02.990Z,21.30
2018-05-16T14:15:30.465Z,21.30
2018-05-16T14:17:58.318Z,22.20
2018-05-16T14:20:25.780Z,23.30
2018-05-16T14:22:53.240Z,24.60
2018-05-16T14:25:20.685Z,25.40
2018-05-16T14:27:48.945Z,25.40
2018-05-16T14:30:16.397Z,25.10
2018-05-16T14:32:43.864Z,24.30
2018-05-16T14:35:11.364Z,23.60
2018-05-16T14:37:38.818Z,23.10
2018-05-16T14:40:06.264Z,22.30
2018-05-16T14:42:33.802Z,21.70
2018-05-16T14:45:01.171Z,21.30
2018-05-16T14:47:28.622Z,20.90
2018-05-16T14:49:56.066Z,20.50
2018-05-16T14:52:24.285Z,19.70
2018-05-16T14:54:51.743Z,19.70
2018-05-16T14:57:20.046Z,19.40
2018-05-16T14:59:48.267Z,19.10
2018-05-16T15:02:15.711Z,19.00
2018-05-16T15:04:44.624Z,19.00
2018-05-16T15:07:12.082Z,19.00
2018-05-16T15:09:40.305Z,18.70
2018-05-16T15:12:07.769Z,18.70
2018-05-16T15:14:35.241Z,18.50
2018-05-16T15:17:02.716Z,18.40
2018-05-16T15:19:30.229Z,18.20
2018-05-16T15:21:57.739Z,18.00
2018-05-16T15:24:25.193Z,17.80
2018-05-16T15:26:52.701Z,17.60
2018-05-16T15:29:20.163Z,17.40
2018-05-16T15:31:47.646Z,17.10
2018-05-16T15:34:15.080Z,16.60
2018-05-16T15:36:42.539Z,16.00
2018-05-16T15:39:10.001Z,15.60
2018-05-16T15:41:37.467Z,15.50
2018-05-16T15:44:04.936Z,15.20
2018-05-16T15:46:32.364Z,15.00
2018-05-16T15:48:59.798Z,14.90
2018-05-16T15:51:27.275Z,14.80
2018-05-16T15:53:54.847Z,14.80
2018-05-16T15:56:23.297Z,15.20
2018-05-16T15:58:50.745Z,15.20
2018-05-16T16:01:18.277Z,16.10
2018-05-16T16:03:45.735Z,17.00
2018-05-16T16:06:13.943Z,18.40
2018-05-16T16:08:41.410Z,18.40
2018-05-16T16:11:09.008Z,18.60
2018-05-16T16:13:36.470Z,18.40
2018-05-16T16:16:03.928Z,18.20
2018-05-16T16:18:31.379Z,18.00
2018-05-16T16:20:58.834Z,17.70
2018-05-16T16:23:26.293Z,17.30
2018-05-16T16:25:53.757Z,17.10
2018-05-16T16:28:21.965Z,16.70
2018-05-16T16:30:50.166Z,16.50
2018-05-16T16:33:17.623Z,16.50
2018-05-16T16:35:45.090Z,16.40
2018-05-16T16:38:12.549Z,16.30
2018-05-16T16:40:40.375Z,16.20
2018-05-16T16:43:07.898Z,16.10
2018-05-16T16:45:35.382Z,16.00
2018-05-16T16:48:03.061Z,16.00
2018-05-16T16:50:30.547Z,16.00
2018-05-16T16:52:57.999Z,16.00
2018-05-16T16:55:26.214Z,16.10
2018-05-16T16:57:53.675Z,16.10
2018-05-16T17:00:21.204Z,16.10
2018-05-16T17:02:49.489Z,16.00
2018-05-16T17:05:16.994Z,15.90
2018-05-16T17:07:44.681Z,15.90
2018-05-16T17:10:12.190Z,15.80
2018-05-16T17:12:39.698Z,15.70
2018-05-16T17:15:07.267Z,15.70
2018-05-16T17:17:34.817Z,15.60
2018-05-16T17:20:02.278Z,15.50
2018-05-16T17:22:29.790Z,15.50
2018-05-16T17:24:57.382Z,15.40
2018-05-16T17:27:24.821Z,15.30
2018-05-16T17:29:52.408Z,15.20
2018-05-16T17:32:19.884Z,15.10
2018-05-16T17:34:47.358Z,15.10
2018-05-16T17:37:15.909Z,14.90
2018-05-16T17:39:43.369Z,14.90
2018-05-16T17:42:10.846Z,14.90
2018-05-16T17:44:38.295Z,14.90
2018-05-16T17:47:05.849Z,14.80
2018-05-16T17:49:33.279Z,14.70
2018-05-16T17:52:01.552Z,14.50
2018-05-16T17:54:29.073Z,14.50
2018-05-16T17:56:56.529Z,14.40
2018-05-16T17:59:23.999Z,14.30
2018-05-16T18:01:51.507Z,14.20
2018-05-16T18:04:19.741Z,14.10
2018-05-16T18:06:47.184Z,14.10
2018-05-16T18:09:14.642Z,14.10
2018-05-16T18:11:42.117Z,14.10
2018-05-16T18:14:21.417Z,14.10
2018-05-16T18:17:00.858Z,14.00
2018-05-16T18:19:28.276Z,13.90
2018-05-16T18:21:55.758Z,13.80
2018-05-16T18:24:23.232Z,13.70
2018-05-16T18:26:51.464Z,13.40
2018-05-16T18:29:18.958Z,13.40
2018-05-16T18:31:46.482Z,13.30
2018-05-16T18:34:14.129Z,13.20
2018-05-16T18:36:41.592Z,13.10
2018-05-16T18:39:09.044Z,12.90
2018-05-16T18:41:36.493Z,12.80
2018-05-16T18:44:04.001Z,12.70
2018-05-16T18:46:31.453Z,12.60
2018-05-16T18:48:58.997Z,12.40
2018-05-16T18:51:26.453Z,12.30
2018-05-16T18:53:53.922Z,12.20
2018-05-16T18:56:21.486Z,12.10
2018-05-16T18:58:48.942Z,12.10
2018-05-16T19:01:16.424Z,12.00
2018-05-16T19:03:43.910Z,11.90
2018-05-16T19:06:12.155Z,11.90
2018-05-16T19:08:39.705Z,11.90
2018-05-16T19:11:07.151Z,11.90
2018-05-16T19:13:35.454Z,11.80
2018-05-16T19:16:02.899Z,11.80
2018-05-16T19:18:30.414Z,11.80
2018-05-16T19:20:57.869Z,11.70
2018-05-16T19:23:25.327Z,11.70
2018-05-16T19:25:52.791Z,11.70
2018-05-16T19:28:20.239Z,11.70
2018-05-16T19:30:50.943Z,11.70
2018-05-16T19:33:18.431Z,11.70
2018-05-16T19:35:45.925Z,11.70
2018-05-16T19:38:13.432Z,11.70
2018-05-16T19:40:40.980Z,11.70
2018-05-16T19:43:08.450Z,11.70
2018-05-16T19:45:35.902Z,11.60
2018-05-16T19:48:03.359Z,11.60
2018-05-16T19:50:30.837Z,11.60
2018-05-16T19:52:58.395Z,11.60
2018-05-16T19:55:26.762Z,11.60
2018-05-16T19:57:54.974Z,11.50
2018-05-16T20:00:22.445Z,11.50
2018-05-16T20:02:49.916Z,11.50
2018-05-16T20:05:17.401Z,11.50
2018-05-16T20:07:44.925Z,11.60
2018-05-16T20:10:12.377Z,11.60
2018-05-16T20:12:39.914Z,11.60
2018-05-16T20:15:07.565Z,11.60
2018-05-16T20:17:35.033Z,11.60
2018-05-16T20:20:03.989Z,11.60
2018-05-16T20:22:31.461Z,11.60
2018-05-16T20:24:58.915Z,11.60
2018-05-16T20:27:26.372Z,11.60
2018-05-16T20:29:53.895Z,11.50
2018-05-16T20:32:21.327Z,11.40
2018-05-16T20:34:49.562Z,11.30
2018-05-16T20:37:17.043Z,11.20
2018-05-16T20:39:44.483Z,11.20
2018-05-16T20:42:12.017Z,11.10
2018-05-16T20:44:39.520Z,11.10
2018-05-16T20:47:06.961Z,11.00
2018-05-16T20:49:34.433Z,11.00
2018-05-16T20:52:01.914Z,11.00
2018-05-16T20:54:29.360Z,11.00
2018-05-16T20:56:56.826Z,11.00
2018-05-16T20:59:24.269Z,10.90
2018-05-16T21:01:52.604Z,10.80
2018-05-16T21:04:20.060Z,10.80
2018-05-16T21:06:47.575Z,10.80
2018-05-16T21:09:15.026Z,10.70
2018-05-16T21:11:42.491Z,10.60
2018-05-16T21:14:09.973Z,10.60
2018-05-16T21:16:37.430Z,10.50
2018-05-16T21:19:04.937Z,10.40
2018-05-16T21:21:32.437Z,10.40
2018-05-16T21:23:59.955Z,10.20
2018-05-16T21:26:28.207Z,10.10
2018-05-16T21:28:55.683Z,10.10
2018-05-16T21:31:23.927Z,10.00
2018-05-16T21:33:51.376Z,9.90
2018-05-16T21:36:18.828Z,9.90
2018-05-16T21:38:46.270Z,9.90
2018-05-16T21:41:13.739Z,9.90
2018-05-16T21:43:41.203Z,9.90
2018-05-16T21:46:08.746Z,9.90
2018-05-16T21:48:37.089Z,9.90
2018-05-16T21:51:04.677Z,9.90
2018-05-16T21:53:32.189Z,9.90
2018-05-16T21:55:59.688Z,10.00
2018-05-16T21:58:27.105Z,10.10
2018-05-16T22:00:54.560Z,10.20
2018-05-16T22:03:22.053Z,10.20
2018-05-16T22:05:49.591Z,10.20
2018-05-16T22:08:17.057Z,10.30
2018-05-16T22:10:44.552Z,10.30
2018-05-16T22:13:12.072Z,10.30
2018-05-16T22:15:40.438Z,10.30
2018-05-16T22:18:07.933Z,10.20
2018-05-16T22:20:35.404Z,10.20
2018-05-16T22:23:02.901Z,10.10
2018-05-16T22:25:32.081Z,10.00
2018-05-16T22:27:59.553Z,9.90
2018-05-16T22:30:33.441Z,9.80
2018-05-16T22:33:06.674Z,9.80
2018-05-16T22:35:40.617Z,9.80
2018-05-16T22:38:13.812Z,9.70
2018-05-16T22:40:47.033Z,9.80
2018-05-16T22:43:14.112Z,9.70
2018-05-16T22:45:42.246Z,9.60
2018-05-16T22:48:09.732Z,9.60
2018-05-16T22:50:37.219Z,9.60
2018-05-16T22:53:04.721Z,9.70
2018-05-16T22:55:32.173Z,9.70
2018-05-16T22:57:59.688Z,9.70
2018-05-16T23:00:27.145Z,9.60
2018-05-16T23:02:54.644Z,9.70
2018-05-16T23:05:22.835Z,9.80
2018-05-16T23:07:50.356Z,9.70
2018-05-16T23:10:18.595Z,9.90
2018-05-16T23:12:46.047Z,9.90
2018-05-16T23:15:13.509Z,10.00
2018-05-16T23:17:40.957Z,10.10
2018-05-16T23:20:08.418Z,10.10
2018-05-16T23:22:35.893Z,10.10
2018-05-16T23:25:03.364Z,10.10
2018-05-16T23:27:30.832Z,10.10
2018-05-16T23:29:58.341Z,10.10
2018-05-16T23:32:26.557Z,10.20
2018-05-16T23:34:54.028Z,10.20
2018-05-16T23:37:21.552Z,10.30
2018-05-16T23:39:49.023Z,10.30
2018-05-16T23:42:16.491Z,10.30
2018-05-16T23:44:43.948Z,10.30
2018-05-16T23:47:11.425Z,10.30
2018-05-16T23:49:38.873Z,10.40
2018-05-16T23:52:06.332Z,10.30
2018-05-16T23:54:33.813Z,10.40
2018-05-16T23:57:01.276Z,10.40
2018-05-16T23:59:28.785Z,10.40
